Kezdőlap
METAR-TAF:

METAR-TAF

Repülőterek :

Monticello Regional Airport

Monticello, Iowa, Amerikai Egyesült Államok

földrajzi szélesség: 42-14N, földrajzi hosszúság: 091-10W, magasság: 259 m

Jelenlegi meteorológiai megfigyelések

A jelentés 26 perccel ezelõtt készült, 16:15 UTC
Délkeleti szél 8 kt
Hőmérséklet 26°C
Páratartalom 74%
Légköri nyomás 1019 hPa
Látótávolság: 16.1 km
Derült ég

METAR: KMXO 131615Z AUTO 13008KT 10SM CLR 26/21 A3010 RMK AO2

Idő: 11:41 (16:41 UTC)


TAF: hiányzik

Meteorológiai megfigyelések és előrejelzések több, mint 4000 repülőtéren (METAR és TAF jelentéseket).

A térképen piros és sárga pontok jelzik az elérhető meteorológiai állomásokat.

Mozgassa az egeret a pont fölött, hogy megjelenjen az állomás neve.

Azután kattintson az időjárási megfigyelések és előrejelzések megtekintéséhez.

A térkép megváltoztatása: kattintson a fekete keresztel jelölt zöld gombra ráközelítéshez, a vonallal jelölt zöld gombra távolításhoz, vagy a zöld nyilakra a szomszédos térképek eléréséhez.


METAR-TAF: